Time;durP1;ratioP1;P1;durP2;ratioP2;P2;SDS_P1;SDS_P2;PMS_P1;PMS_P2;Temp;Humidity;BMP_temperature;BMP_pressure;BME280_temperature;BME280_humidity;BME280_pressure;Samples;Min_cycle;Max_cycle;Signal;HPM_P1;HPM_P2
2023/05/13 00:00:44;;;;;;;14.02;5.60;;;12.30;99.90;;;;;;5116828;27;20046;-80
2023/05/13 00:03:11;;;;;;;9.00;4.75;;;12.20;99.90;;;;;;5116474;28;20039;-81
2023/05/13 00:05:39;;;;;;;10.48;5.68;;;12.20;99.90;;;;;;5133752;28;20043;-80
2023/05/13 00:08:06;;;;;;;9.90;5.20;;;12.20;99.90;;;;;;5147617;28;20047;-80
2023/05/13 00:10:33;;;;;;;8.18;5.43;;;12.10;99.90;;;;;;5105530;28;20039;-80
2023/05/13 00:13:00;;;;;;;10.50;5.35;;;12.20;99.90;;;;;;5129903;28;20071;-80
2023/05/13 00:15:27;;;;;;;8.52;5.38;;;12.20;99.90;;;;;;5129606;28;20046;-81
2023/05/13 00:17:54;;;;;;;11.43;5.30;;;12.20;99.90;;;;;;5135116;28;20462;-81
2023/05/13 00:20:21;;;;;;;7.97;5.00;;;12.20;99.90;;;;;;5125669;28;20116;-81
2023/05/13 00:22:47;;;;;;;9.82;5.13;;;12.20;99.90;;;;;;5113036;28;20114;-80
2023/05/13 00:25:15;;;;;;;7.78;5.15;;;12.20;99.90;;;;;;5096311;28;20058;-81
2023/05/13 00:27:41;;;;;;;10.35;5.30;;;12.20;99.90;;;;;;5129666;28;20509;-80
2023/05/13 00:30:09;;;;;;;11.10;5.65;;;12.20;99.90;;;;;;5111641;28;20122;-80
2023/05/13 00:32:36;;;;;;;10.98;5.50;;;12.20;99.90;;;;;;5112346;28;20055;-80
2023/05/13 00:35:03;;;;;;;8.57;5.70;;;12.20;99.90;;;;;;5112575;28;20404;-80
2023/05/13 00:37:29;;;;;;;8.65;5.47;;;12.20;99.90;;;;;;5112532;28;20050;-81
2023/05/13 00:39:56;;;;;;;10.18;5.88;;;12.10;99.90;;;;;;5096347;28;20078;-80
2023/05/13 00:42:23;;;;;;;11.90;6.05;;;12.10;99.90;;;;;;5113385;28;20048;-81
2023/05/13 00:44:50;;;;;;;11.95;5.53;;;12.10;99.90;;;;;;5116981;28;20051;-81
2023/05/13 00:47:17;;;;;;;10.55;6.15;;;12.00;99.90;;;;;;5116694;28;20233;-81
2023/05/13 00:49:44;;;;;;;9.05;5.80;;;12.00;99.90;;;;;;5100163;28;20040;-81
2023/05/13 00:52:11;;;;;;;11.85;6.18;;;12.00;99.90;;;;;;5133601;28;20039;-80
2023/05/13 00:54:38;;;;;;;10.77;5.97;;;12.00;99.90;;;;;;5116212;28;20296;-80
2023/05/13 00:57:05;;;;;;;14.43;6.43;;;12.00;99.90;;;;;;5116695;28;20495;-81
2023/05/13 00:59:31;;;;;;;8.70;6.20;;;11.90;99.90;;;;;;5099676;28;20046;-81
2023/05/13 01:01:58;;;;;;;10.02;5.93;;;11.90;99.90;;;;;;5116685;28;20138;-80
2023/05/13 01:04:31;;;;;;;12.27;6.15;;;11.90;99.90;;;;;;5132831;28;20032;-80
2023/05/13 01:07:25;;;;;;;11.27;5.97;;;11.80;99.90;;;;;;5150232;28;20043;-80
2023/05/13 01:10:14;;;;;;;12.73;6.53;;;11.70;99.90;;;;;;5133320;28;20036;-80
2023/05/13 01:12:43;;;;;;;8.57;5.50;;;11.70;99.90;;;;;;5149760;28;20048;-80
2023/05/13 01:15:17;;;;;;;8.52;5.93;;;11.60;99.90;;;;;;5133310;28;20046;-80
2023/05/13 01:18:08;;;;;;;9.85;6.40;;;11.60;99.90;;;;;;5132618;28;20046;-80
2023/05/13 01:20:39;;;;;;;10.45;6.20;;;11.60;99.90;;;;;;5132953;28;20035;-80
2023/05/13 01:23:06;;;;;;;11.05;6.65;;;11.50;99.90;;;;;;5159578;27;20039;-80
2023/05/13 01:25:32;;;;;;;9.07;6.45;;;11.50;99.90;;;;;;5153091;27;20050;-80
2023/05/13 01:27:59;;;;;;;11.20;6.93;;;11.50;99.90;;;;;;5119245;27;20039;-80
2023/05/13 01:30:26;;;;;;;10.52;7.15;;;11.40;99.90;;;;;;5150619;27;20104;-80
2023/05/13 01:32:53;;;;;;;10.77;6.80;;;11.50;99.90;;;;;;5135668;27;20039;-79
2023/05/13 01:35:21;;;;;;;10.65;6.75;;;11.50;99.90;;;;;;5118601;27;20566;-79
2023/05/13 01:37:49;;;;;;;10.63;6.55;;;11.40;99.90;;;;;;5152843;27;20041;-80
2023/05/13 01:40:16;;;;;;;11.90;6.70;;;11.30;99.90;;;;;;5153045;27;20066;-80
2023/05/13 01:42:42;;;;;;;13.43;6.78;;;11.30;99.90;;;;;;5125787;28;20068;-80
2023/05/13 01:45:10;;;;;;;11.43;7.03;;;11.20;99.90;;;;;;5098770;28;20065;-80
2023/05/13 01:47:36;;;;;;;11.70;7.03;;;11.20;99.90;;;;;;5115382;28;20043;-80
2023/05/13 01:50:03;;;;;;;11.80;6.80;;;11.20;99.90;;;;;;5099198;28;20501;-80
2023/05/13 01:52:30;;;;;;;10.43;6.82;;;11.30;99.90;;;;;;5123562;28;20120;-80
2023/05/13 01:54:57;;;;;;;11.27;7.00;;;11.30;99.90;;;;;;5130838;28;20040;-80
2023/05/13 01:57:24;;;;;;;9.95;7.32;;;11.30;99.90;;;;;;5132622;28;20503;-80
2023/05/13 01:59:51;;;;;;;11.30;7.45;;;11.20;99.90;;;;;;5131990;28;20035;-80
2023/05/13 02:02:18;;;;;;;10.18;6.60;;;11.20;99.90;;;;;;5111044;28;20108;-80
2023/05/13 02:04:45;;;;;;;11.82;6.93;;;11.20;99.90;;;;;;5115005;28;20047;-80
2023/05/13 02:07:11;;;;;;;10.23;6.65;;;11.20;99.90;;;;;;5115660;28;20051;-80
2023/05/13 02:09:38;;;;;;;10.63;6.88;;;11.20;99.90;;;;;;5113494;28;20048;-80
2023/05/13 02:12:05;;;;;;;11.95;7.13;;;11.10;99.90;;;;;;5143175;27;20043;-80
2023/05/13 02:14:32;;;;;;;13.98;7.15;;;11.10;99.90;;;;;;5098217;28;20499;-80
2023/05/13 02:16:59;;;;;;;13.02;7.13;;;11.10;99.90;;;;;;5114796;28;20039;-80
2023/05/13 02:19:25;;;;;;;10.35;7.22;;;11.10;99.90;;;;;;5098690;28;20506;-80
2023/05/13 02:21:52;;;;;;;13.52;7.57;;;11.10;99.90;;;;;;5131979;28;20079;-80
2023/05/13 02:24:19;;;;;;;11.35;7.80;;;11.10;99.90;;;;;;5115038;28;20036;-80
2023/05/13 02:26:45;;;;;;;12.20;7.53;;;11.10;99.90;;;;;;5117216;27;20402;-80
2023/05/13 02:29:13;;;;;;;13.23;8.65;;;11.10;99.90;;;;;;5152297;27;20039;-80
2023/05/13 02:31:41;;;;;;;13.95;8.05;;;11.00;99.90;;;;;;5134886;27;20113;-80
2023/05/13 02:34:08;;;;;;;14.23;8.30;;;11.00;99.90;;;;;;5107192;28;20491;-80
2023/05/13 02:36:35;;;;;;;10.48;8.25;;;11.00;99.90;;;;;;5146511;28;20119;-81
2023/05/13 02:39:02;;;;;;;13.23;8.77;;;11.00;99.90;;;;;;5131485;28;20040;-81
2023/05/13 02:41:29;;;;;;;11.50;8.38;;;10.90;99.90;;;;;;5131345;28;20120;-81
2023/05/13 02:43:55;;;;;;;17.05;8.85;;;10.90;99.90;;;;;;5131182;28;20040;-81
2023/05/13 02:46:22;;;;;;;14.13;9.60;;;10.90;99.90;;;;;;5114460;28;20050;-81
2023/05/13 02:48:49;;;;;;;16.15;9.43;;;10.80;99.90;;;;;;5097488;28;20040;-81
2023/05/13 02:51:15;;;;;;;13.05;9.23;;;10.80;99.90;;;;;;5114621;28;20131;-81
2023/05/13 02:53:42;;;;;;;16.05;10.55;;;10.80;99.90;;;;;;5114021;28;20043;-81
2023/05/13 02:56:09;;;;;;;14.40;9.85;;;10.90;99.90;;;;;;5114510;27;20071;-81
2023/05/13 02:58:35;;;;;;;16.58;10.48;;;10.90;99.90;;;;;;5097329;28;20096;-81
2023/05/13 03:01:02;;;;;;;15.30;11.00;;;10.80;99.90;;;;;;5097152;28;20043;-82
2023/05/13 03:03:29;;;;;;;14.32;9.95;;;10.90;99.90;;;;;;5097675;28;20035;-81
2023/05/13 03:05:55;;;;;;;15.20;10.52;;;10.90;99.90;;;;;;5110773;27;20165;-81
2023/05/13 03:08:22;;;;;;;16.58;10.32;;;10.90;99.90;;;;;;5134655;27;20043;-81
2023/05/13 03:10:50;;;;;;;18.00;11.00;;;10.90;99.90;;;;;;5168453;27;20122;-81
2023/05/13 03:13:17;;;;;;;16.42;11.35;;;10.90;99.90;;;;;;5134948;27;20070;-81
2023/05/13 03:15:44;;;;;;;16.40;10.27;;;10.90;99.90;;;;;;5133734;27;20075;-81
2023/05/13 03:18:10;;;;;;;14.10;9.82;;;10.90;99.90;;;;;;5117447;27;20395;-81
2023/05/13 03:20:37;;;;;;;13.77;10.10;;;10.80;99.90;;;;;;5117053;27;20139;-81
2023/05/13 03:23:04;;;;;;;13.95;10.38;;;10.80;99.90;;;;;;5133435;27;20034;-81
2023/05/13 03:25:31;;;;;;;18.67;10.80;;;10.70;99.90;;;;;;5134120;27;20039;-81
2023/05/13 03:27:57;;;;;;;20.83;10.55;;;10.70;99.90;;;;;;5116769;27;20053;-81
2023/05/13 03:30:24;;;;;;;16.85;10.40;;;10.70;99.90;;;;;;5133828;27;20046;-81
2023/05/13 03:32:51;;;;;;;16.23;10.63;;;10.60;99.90;;;;;;5133990;27;20100;-85
2023/05/13 03:35:18;;;;;;;15.82;10.40;;;10.70;99.90;;;;;;5135033;27;20130;-85
2023/05/13 03:37:44;;;;;;;13.70;9.85;;;10.60;99.90;;;;;;5133328;27;20027;-85
2023/05/13 03:40:11;;;;;;;15.07;9.63;;;10.60;99.90;;;;;;5134404;27;20073;-86
2023/05/13 03:42:38;;;;;;;15.10;9.85;;;10.60;99.90;;;;;;5117333;27;20055;-85
2023/05/13 03:45:05;;;;;;;12.57;8.70;;;10.70;99.90;;;;;;5150976;27;20050;-85
2023/05/13 03:47:32;;;;;;;12.75;9.13;;;10.60;99.90;;;;;;5149805;27;20407;-86
2023/05/13 03:49:59;;;;;;;17.33;9.27;;;10.70;99.90;;;;;;5134656;27;20096;-85
2023/05/13 03:52:25;;;;;;;16.20;9.40;;;10.70;99.90;;;;;;5118514;27;20046;-86
2023/05/13 03:54:52;;;;;;;13.50;8.95;;;10.70;99.90;;;;;;5117823;27;20494;-85
2023/05/13 03:57:19;;;;;;;15.13;9.65;;;10.70;99.90;;;;;;5113922;28;20056;-85
2023/05/13 03:59:45;;;;;;;13.60;10.00;;;10.70;99.90;;;;;;5097104;28;20064;-85
2023/05/13 04:02:12;;;;;;;17.75;9.80;;;10.70;99.90;;;;;;5114288;28;20756;-86
2023/05/13 04:04:39;;;;;;;13.82;10.05;;;10.70;99.90;;;;;;5114116;28;20403;-85
2023/05/13 04:07:05;;;;;;;15.63;9.52;;;10.80;99.90;;;;;;5114341;28;20519;-85
2023/05/13 04:09:32;;;;;;;16.55;9.93;;;10.80;99.90;;;;;;5118049;28;20050;-85
2023/05/13 04:11:59;;;;;;;19.70;10.20;;;10.80;99.90;;;;;;5117682;28;20096;-85
2023/05/13 04:14:26;;;;;;;16.52;10.35;;;10.70;99.90;;;;;;5151539;28;20129;-85
2023/05/13 04:16:52;;;;;;;19.63;10.10;;;10.80;99.90;;;;;;5117469;27;20150;-85
2023/05/13 04:19:19;;;;;;;15.82;9.73;;;10.80;99.90;;;;;;5107149;28;20045;-86
2023/05/13 04:21:46;;;;;;;16.83;10.52;;;10.80;99.90;;;;;;5117501;28;20039;-85
2023/05/13 04:24:12;;;;;;;14.40;9.52;;;10.70;99.90;;;;;;5101008;28;20075;-85
2023/05/13 04:26:39;;;;;;;14.43;10.25;;;10.80;99.90;;;;;;5101841;28;20043;-86
2023/05/13 04:29:06;;;;;;;15.35;9.70;;;10.80;99.90;;;;;;5117582;28;20035;-85
2023/05/13 04:31:32;;;;;;;17.08;10.40;;;10.80;99.90;;;;;;5135240;28;20035;-85
2023/05/13 04:33:59;;;;;;;19.70;9.90;;;10.80;99.90;;;;;;5117623;28;20480;-85
2023/05/13 04:36:26;;;;;;;16.58;9.45;;;10.80;99.90;;;;;;5121796;28;20050;-85
2023/05/13 04:38:54;;;;;;;15.75;9.48;;;10.90;99.90;;;;;;5134382;28;20067;-85
2023/05/13 04:41:20;;;;;;;15.73;9.95;;;10.90;99.90;;;;;;5134868;28;20106;-85
2023/05/13 04:43:48;;;;;;;15.10;9.68;;;10.90;99.90;;;;;;5134747;28;20117;-85
2023/05/13 04:46:14;;;;;;;18.20;11.82;;;10.90;99.90;;;;;;5117758;28;20508;-85
2023/05/13 04:48:41;;;;;;;16.45;10.07;;;10.90;99.90;;;;;;5101132;28;20050;-86
2023/05/13 04:51:08;;;;;;;13.00;9.68;;;11.00;99.90;;;;;;5117030;28;20107;-85
2023/05/13 04:53:35;;;;;;;14.73;9.82;;;11.00;99.90;;;;;;5134459;28;20042;-86
2023/05/13 04:56:01;;;;;;;13.02;9.68;;;11.00;99.90;;;;;;5100575;28;20046;-85
2023/05/13 04:58:28;;;;;;;16.52;10.00;;;11.00;99.90;;;;;;5100458;28;20039;-85
2023/05/13 05:00:56;;;;;;;13.27;9.32;;;11.10;99.90;;;;;;5117045;28;20036;-85
2023/05/13 05:03:24;;;;;;;15.32;10.18;;;11.10;99.90;;;;;;5100508;28;20646;-85
2023/05/13 05:05:51;;;;;;;15.77;10.25;;;11.10;99.90;;;;;;5100914;28;20075;-86
2023/05/13 05:08:18;;;;;;;14.02;9.65;;;11.20;99.90;;;;;;5129830;27;20074;-85
2023/05/13 05:10:44;;;;;;;15.02;10.15;;;11.20;99.90;;;;;;5121292;27;20501;-85
2023/05/13 05:13:11;;;;;;;15.68;9.65;;;11.20;99.90;;;;;;5137761;27;20399;-86
2023/05/13 05:15:38;;;;;;;16.15;9.60;;;11.20;99.90;;;;;;5154676;27;20079;-86
2023/05/13 05:18:05;;;;;;;14.13;9.73;;;11.30;99.90;;;;;;5133697;28;20130;-85
2023/05/13 05:20:32;;;;;;;18.77;10.43;;;11.40;99.90;;;;;;5116857;28;20127;-85
2023/05/13 05:22:59;;;;;;;15.98;10.05;;;11.40;99.90;;;;;;5116925;28;20126;-85
2023/05/13 05:25:26;;;;;;;16.30;10.75;;;11.40;99.90;;;;;;5100493;28;20040;-86
2023/05/13 05:27:53;;;;;;;15.50;10.43;;;11.50;99.90;;;;;;5151557;28;20047;-86
2023/05/13 05:30:20;;;;;;;14.88;10.18;;;11.50;99.90;;;;;;5100331;28;20039;-85
2023/05/13 05:32:46;;;;;;;16.70;10.75;;;11.60;99.90;;;;;;5100547;28;20039;-86
2023/05/13 05:35:15;;;;;;;20.45;10.20;;;11.60;99.90;;;;;;5099858;28;20051;-85
2023/05/13 05:37:41;;;;;;;15.20;9.85;;;11.70;99.90;;;;;;5117288;28;20038;-85
2023/05/13 05:40:09;;;;;;;16.23;10.00;;;11.70;99.90;;;;;;5117933;27;20407;-86
2023/05/13 05:42:35;;;;;;;17.80;10.88;;;11.80;99.90;;;;;;5137117;27;20080;-85
2023/05/13 05:45:02;;;;;;;15.60;9.10;;;11.80;99.90;;;;;;5153054;27;20118;-85
2023/05/13 05:47:29;;;;;;;14.55;9.30;;;11.80;99.90;;;;;;5136654;27;20135;-85
2023/05/13 05:49:55;;;;;;;12.60;9.23;;;11.90;99.90;;;;;;5131901;28;20040;-85
2023/05/13 05:52:22;;;;;;;14.07;10.15;;;12.00;99.90;;;;;;5132955;28;20118;-85
2023/05/13 05:54:49;;;;;;;14.50;10.70;;;12.00;99.90;;;;;;5099724;28;20032;-85
2023/05/13 05:57:15;;;;;;;12.68;9.43;;;12.10;99.90;;;;;;5115994;28;20075;-86
2023/05/13 05:59:42;;;;;;;18.35;10.55;;;12.10;99.90;;;;;;5103126;28;20036;-85
2023/05/13 06:02:09;;;;;;;13.35;9.50;;;12.10;99.90;;;;;;5133028;28;20054;-86
2023/05/13 06:04:36;;;;;;;14.07;9.30;;;12.20;99.90;;;;;;5116331;28;20039;-85
2023/05/13 06:07:02;;;;;;;14.88;9.77;;;12.30;99.90;;;;;;5135180;27;20134;-86
2023/05/13 06:09:29;;;;;;;13.75;9.27;;;12.30;99.90;;;;;;5136861;27;20130;-85
2023/05/13 06:11:56;;;;;;;15.85;9.52;;;12.40;99.90;;;;;;5136618;27;20035;-86
2023/05/13 06:14:23;;;;;;;16.40;9.38;;;12.40;99.90;;;;;;5119129;27;20441;-86
2023/05/13 06:16:49;;;;;;;14.20;9.32;;;12.50;99.90;;;;;;5119564;27;20043;-86
2023/05/13 06:19:16;;;;;;;17.25;9.18;;;12.60;99.90;;;;;;5136101;27;20058;-86
2023/05/13 06:21:43;;;;;;;14.48;9.38;;;12.60;99.90;;;;;;5101083;28;20093;-86
2023/05/13 06:24:10;;;;;;;16.20;9.13;;;12.70;99.90;;;;;;5098825;28;20467;-86
2023/05/13 06:26:37;;;;;;;14.73;9.55;;;12.80;99.90;;;;;;5099278;28;20088;-86
2023/05/13 06:29:03;;;;;;;14.18;8.63;;;12.80;99.90;;;;;;5115848;28;20054;-86
2023/05/13 06:31:30;;;;;;;17.67;9.70;;;12.90;99.90;;;;;;5133119;28;20074;-86
2023/05/13 06:33:57;;;;;;;15.30;9.40;;;12.90;99.90;;;;;;5098736;28;20078;-86
2023/05/13 06:36:24;;;;;;;14.30;9.05;;;13.00;99.90;;;;;;5098522;28;20526;-85
2023/05/13 06:38:52;;;;;;;14.90;8.68;;;13.10;99.90;;;;;;5115901;28;20038;-86
2023/05/13 06:41:18;;;;;;;16.95;8.90;;;13.10;99.90;;;;;;5124109;27;20633;-86
2023/05/13 06:43:47;;;;;;;12.82;8.23;;;13.20;99.90;;;;;;5119122;27;20043;-86
2023/05/13 06:46:14;;;;;;;12.57;8.38;;;13.30;99.90;;;;;;5119777;27;20039;-87
2023/05/13 06:48:41;;;;;;;14.77;8.38;;;13.30;99.90;;;;;;5136557;27;20047;-87
2023/05/13 06:51:08;;;;;;;13.25;8.13;;;13.40;99.90;;;;;;5119590;27;20047;-87
2023/05/13 06:53:34;;;;;;;14.45;7.82;;;13.50;99.90;;;;;;5136160;27;20074;-87
2023/05/13 06:56:02;;;;;;;11.52;7.70;;;13.60;99.90;;;;;;5153325;27;20130;-88
2023/05/13 06:58:29;;;;;;;16.17;7.97;;;13.70;99.90;;;;;;5136062;27;20028;-87
2023/05/13 07:00:55;;;;;;;11.07;7.50;;;13.80;99.90;;;;;;5136193;27;20042;-87
2023/05/13 07:03:22;;;;;;;13.10;7.88;;;13.90;99.90;;;;;;5116596;27;20410;-87
2023/05/13 07:05:49;;;;;;;12.48;8.05;;;14.00;99.90;;;;;;5135312;27;20487;-88
2023/05/13 07:08:16;;;;;;;13.15;8.07;;;14.00;99.90;;;;;;5135124;27;20035;-87
2023/05/13 07:10:43;;;;;;;14.55;8.13;;;14.10;99.90;;;;;;5152471;27;20043;-86
2023/05/13 07:13:10;;;;;;;13.68;7.50;;;14.20;99.90;;;;;;5139449;28;20407;-87
2023/05/13 07:15:37;;;;;;;14.60;8.00;;;14.30;99.90;;;;;;5114726;28;20047;-87
2023/05/13 07:18:04;;;;;;;13.07;7.15;;;14.30;99.90;;;;;;5098965;28;20057;-87
2023/05/13 07:20:31;;;;;;;12.25;7.22;;;14.40;99.90;;;;;;5098311;28;20039;-87
2023/05/13 07:22:58;;;;;;;13.52;7.28;;;14.50;99.90;;;;;;5121718;28;20073;-87
2023/05/13 07:25:24;;;;;;;12.40;7.50;;;14.60;99.90;;;;;;5114717;28;20067;-88
2023/05/13 07:27:51;;;;;;;10.30;7.28;;;14.60;99.90;;;;;;5098412;28;20039;-87
2023/05/13 07:30:18;;;;;;;12.25;7.15;;;14.70;99.90;;;;;;5138224;28;20043;-87
2023/05/13 07:32:44;;;;;;;11.82;6.93;;;14.70;99.90;;;;;;5100463;28;20081;-86
2023/05/13 07:35:11;;;;;;;12.05;7.03;;;14.80;99.90;;;;;;5101562;28;20518;-87
2023/05/13 07:37:38;;;;;;;12.90;6.72;;;14.90;99.90;;;;;;5131611;28;20063;-89
2023/05/13 07:40:05;;;;;;;10.68;7.18;;;15.00;99.90;;;;;;5131551;28;20061;-87
2023/05/13 07:42:32;;;;;;;14.02;7.45;;;15.00;99.90;;;;;;5114159;28;20055;-87
2023/05/13 07:44:59;;;;;;;12.88;6.70;;;15.20;99.90;;;;;;5130666;28;20035;-88
2023/05/13 07:47:30;;;;;;;16.05;6.93;;;15.30;99.90;;;;;;5097562;28;20039;-87
2023/05/13 07:49:57;;;;;;;11.88;6.78;;;15.40;99.90;;;;;;5098765;28;20043;-87
2023/05/13 07:52:23;;;;;;;8.90;5.85;;;15.50;99.90;;;;;;5097651;28;20043;-87
2023/05/13 07:54:50;;;;;;;9.73;6.35;;;15.60;99.90;;;;;;5127226;28;20126;-87
2023/05/13 07:57:17;;;;;;;11.30;6.65;;;15.80;99.90;;;;;;5098195;27;20181;-87
2023/05/13 07:59:44;;;;;;;12.73;5.85;;;15.90;99.90;;;;;;5118277;27;20812;-87
2023/05/13 08:02:11;;;;;;;10.15;5.75;;;16.10;99.90;;;;;;5118125;27;20487;-87
2023/05/13 08:04:38;;;;;;;9.88;5.88;;;16.10;99.90;;;;;;5125756;28;20054;-88
2023/05/13 08:07:05;;;;;;;10.68;5.40;;;16.00;99.90;;;;;;5114442;28;20067;-87
2023/05/13 08:09:31;;;;;;;13.10;6.25;;;16.20;99.90;;;;;;5114079;28;20514;-87
2023/05/13 08:11:58;;;;;;;15.20;6.35;;;16.30;99.90;;;;;;5114253;28;20130;-87
2023/05/13 08:14:24;;;;;;;10.95;5.78;;;16.50;99.90;;;;;;5113730;28;20043;-87
2023/05/13 08:16:51;;;;;;;7.63;5.28;;;16.60;99.90;;;;;;5131138;28;20039;-88
2023/05/13 08:19:18;;;;;;;9.90;5.90;;;16.70;99.90;;;;;;5114306;28;20043;-86
2023/05/13 08:21:45;;;;;;;11.20;6.03;;;16.80;99.90;;;;;;5131370;28;20082;-88
2023/05/13 08:24:12;;;;;;;8.60;5.75;;;16.90;99.90;;;;;;5114813;28;20070;-87
2023/05/13 08:26:38;;;;;;;9.90;5.40;;;17.10;99.90;;;;;;5134218;28;20054;-87
2023/05/13 08:29:05;;;;;;;9.63;5.03;;;17.20;99.90;;;;;;5132592;28;20055;-88
2023/05/13 08:31:32;;;;;;;8.80;5.30;;;17.30;99.90;;;;;;5113718;28;20048;-88
2023/05/13 08:33:58;;;;;;;9.35;5.30;;;17.40;99.90;;;;;;5114408;28;20786;-88
2023/05/13 08:36:26;;;;;;;8.45;4.80;;;17.50;99.90;;;;;;5130539;28;20061;-87
2023/05/13 08:38:52;;;;;;;9.23;5.00;;;17.60;99.90;;;;;;5131268;28;20043;-88
2023/05/13 08:41:21;;;;;;;8.68;4.97;;;17.70;99.90;;;;;;5097388;28;20056;-85
2023/05/13 08:43:50;;;;;;;7.63;4.63;;;17.90;99.90;;;;;;5131222;28;20408;-88
2023/05/13 08:46:18;;;;;;;7.88;4.07;;;18.00;99.90;;;;;;5122133;28;20410;-88
2023/05/13 08:48:45;;;;;;;9.32;3.90;;;18.00;99.90;;;;;;5130239;28;20047;-87
2023/05/13 08:51:12;;;;;;;9.80;4.45;;;18.10;99.90;;;;;;5114271;28;20046;-88
2023/05/13 08:53:40;;;;;;;7.90;4.22;;;18.30;99.90;;;;;;5097489;28;20040;-87
2023/05/13 08:56:10;;;;;;;10.15;4.25;;;18.50;99.90;;;;;;5121938;28;20448;-88
2023/05/13 08:58:37;;;;;;;9.65;3.88;;;18.70;99.90;;;;;;5130558;28;20495;-87
2023/05/13 09:01:06;;;;;;;12.75;4.15;;;18.80;99.90;;;;;;5114176;28;20042;-88
2023/05/13 09:03:35;;;;;;;7.03;4.45;;;18.90;99.90;;;;;;5150197;27;20049;-88
2023/05/13 09:06:02;;;;;;;11.07;4.53;;;19.10;99.90;;;;;;5134267;28;20035;-88
2023/05/13 09:08:30;;;;;;;9.35;4.55;;;19.20;99.90;;;;;;5134380;28;20042;-88
2023/05/13 09:10:57;;;;;;;12.27;4.22;;;19.30;99.90;;;;;;5128744;27;20491;-88
2023/05/13 09:13:24;;;;;;;9.38;4.55;;;19.40;99.90;;;;;;5154440;27;20099;-87
2023/05/13 09:15:51;;;;;;;6.93;4.40;;;19.50;99.90;;;;;;5137956;27;20039;-88
2023/05/13 09:18:18;;;;;;;8.68;4.50;;;19.60;99.90;;;;;;5154877;27;20046;-87
2023/05/13 09:20:45;;;;;;;7.85;4.07;;;19.70;99.90;;;;;;5137847;27;20043;-87
2023/05/13 09:23:12;;;;;;;10.18;4.70;;;19.70;99.90;;;;;;5121002;27;20108;-88
2023/05/13 09:25:39;;;;;;;9.00;5.15;;;19.80;99.90;;;;;;5154289;27;20043;-88
2023/05/13 09:28:07;;;;;;;6.80;4.82;;;19.80;99.90;;;;;;5141548;28;20039;-87
2023/05/13 09:30:37;;;;;;;9.00;4.25;;;20.00;99.90;;;;;;5150141;27;20047;-88
2023/05/13 09:33:03;;;;;;;8.43;5.07;;;20.10;99.90;;;;;;5168754;27;20050;-88
2023/05/13 09:35:31;;;;;;;8.43;4.20;;;20.20;99.90;;;;;;5133993;28;20035;-87
2023/05/13 09:37:58;;;;;;;10.73;4.90;;;20.30;99.90;;;;;;5144848;27;20053;-88
2023/05/13 09:40:25;;;;;;;6.72;4.38;;;20.40;99.90;;;;;;5120698;27;20126;-88
2023/05/13 09:42:59;;;;;;;6.82;4.05;;;20.40;99.90;;;;;;5132686;28;20495;-85
2023/05/13 09:45:25;;;;;;;7.10;3.78;;;20.50;99.90;;;;;;5150464;28;20405;-88
2023/05/13 09:47:54;;;;;;;7.25;4.50;;;20.60;99.90;;;;;;5154281;27;20032;-88
2023/05/13 09:50:21;;;;;;;5.25;3.80;;;20.80;99.90;;;;;;5144666;28;20035;-88
2023/05/13 09:52:48;;;;;;;7.15;3.90;;;20.80;99.90;;;;;;5116785;28;20043;-88
2023/05/13 09:55:15;;;;;;;8.60;4.10;;;20.90;99.90;;;;;;5136311;27;20047;-87
2023/05/13 09:57:42;;;;;;;7.90;4.05;;;20.90;99.90;;;;;;5115653;28;20782;-87
2023/05/13 10:00:08;;;;;;;8.07;4.40;;;21.00;99.90;;;;;;5133009;28;20043;-88
2023/05/13 10:02:35;;;;;;;8.40;3.40;;;21.10;99.90;;;;;;5108564;27;20066;-88
2023/05/13 10:05:04;;;;;;;8.45;3.40;;;21.20;99.90;;;;;;5116438;28;20075;-88
2023/05/13 10:07:33;;;;;;;7.97;3.42;;;21.30;99.90;;;;;;5099876;28;20040;-87
2023/05/13 10:10:01;;;;;;;9.73;3.50;;;21.30;99.90;;;;;;5117030;28;20126;-88
2023/05/13 10:12:31;;;;;;;7.40;3.10;;;21.30;99.90;;;;;;5138415;27;20043;-88
2023/05/13 10:14:59;;;;;;;10.90;3.65;;;21.40;99.90;;;;;;5152566;27;20053;-88
2023/05/13 10:17:26;;;;;;;5.80;3.13;;;21.50;99.90;;;;;;5137180;27;20039;-92
2023/05/13 10:19:53;;;;;;;7.05;3.17;;;21.60;99.90;;;;;;5120445;27;20095;-94
2023/05/13 10:22:29;;;;;;;8.70;3.50;;;21.70;99.90;;;;;;5137671;27;20035;-92
2023/05/13 10:24:58;;;;;;;9.38;3.60;;;21.80;99.90;;;;;;5139320;28;20035;-91
2023/05/13 10:27:29;;;;;;;5.00;3.00;;;21.80;99.90;;;;;;5132947;28;20402;-89
2023/05/13 10:29:58;;;;;;;8.02;3.10;;;21.90;99.90;;;;;;5149872;28;20043;-89
2023/05/13 10:32:27;;;;;;;5.90;2.80;;;21.90;99.90;;;;;;5116304;28;20047;-91
2023/05/13 10:35:09;;;;;;;8.13;3.08;;;22.00;99.90;;;;;;5124655;28;20503;-89
2023/05/13 10:37:58;;;;;;;5.90;2.30;;;22.10;99.90;;;;;;5132994;28;20354;-94
2023/05/13 10:41:03;;;;;;;7.95;2.70;;;22.10;99.90;;;;;;5134002;28;20044;-92
2023/05/13 10:43:33;;;;;;;5.90;2.97;;;22.20;99.90;;;;;;5150378;28;20051;-95
2023/05/13 10:46:01;;;;;;;10.65;2.70;;;22.30;99.90;;;;;;5134323;28;20035;-90
2023/05/13 10:48:46;;;;;;;5.88;2.75;;;22.30;99.90;;;;;;5133304;28;20089;-92
2023/05/13 10:51:14;;;;;;;9.60;2.72;;;22.40;99.80;;;;;;5133462;28;20043;-91
2023/05/13 10:53:52;;;;;;;6.50;2.30;;;22.40;99.90;;;;;;5132618;28;20148;-90
2023/05/13 10:56:24;;;;;;;6.32;2.33;;;22.40;96.50;;;;;;5150100;27;20418;-88
2023/05/13 10:59:01;;;;;;;8.13;2.50;;;22.50;99.80;;;;;;5153370;27;20039;-91
2023/05/13 11:01:32;;;;;;;9.10;2.40;;;22.50;99.30;;;;;;5153723;27;20027;-89
2023/05/13 11:04:01;;;;;;;8.63;2.67;;;22.70;99.90;;;;;;5153403;27;20177;-93
2023/05/13 11:06:35;;;;;;;5.72;2.42;;;22.70;99.40;;;;;;5136871;28;20188;-90
2023/05/13 11:09:27;;;;;;;9.73;2.75;;;22.80;98.40;;;;;;5149518;28;20044;-88
2023/05/13 11:11:56;;;;;;;9.40;2.70;;;22.70;96.70;;;;;;5111406;28;20139;-87
2023/05/13 11:14:25;;;;;;;6.60;2.80;;;22.80;97.50;;;;;;5147450;27;20393;-88
2023/05/13 11:17:06;;;;;;;7.15;2.95;;;22.80;98.20;;;;;;5159466;27;20040;-88
2023/05/13 11:19:37;;;;;;;8.15;2.40;;;22.80;97.50;;;;;;5136366;28;20043;-88
2023/05/13 11:22:09;;;;;;;5.05;2.50;;;22.80;97.10;;;;;;5136236;27;20095;-87
2023/05/13 11:24:36;;;;;;;6.03;2.60;;;22.90;96.90;;;;;;5139313;28;20499;-88
2023/05/13 11:27:19;;;;;;;7.05;2.38;;;23.00;97.00;;;;;;5128439;28;20035;-87
2023/05/13 11:29:54;;;;;;;8.95;2.90;;;23.00;95.40;;;;;;5131760;28;20072;-87
2023/05/13 11:32:39;;;;;;;;;;;23.00;96.00;;;;;;5132512;28;20036;-88
2023/05/13 11:35:07;;;;;;;8.63;2.53;;;23.10;94.90;;;;;;5131680;28;19916;-87
2023/05/13 11:37:40;;;;;;;6.70;2.53;;;23.30;97.10;;;;;;5131224;28;20120;-88
2023/05/13 11:40:09;;;;;;;5.05;2.50;;;23.20;96.70;;;;;;5116218;28;20031;-87
2023/05/13 11:42:38;;;;;;;8.43;2.17;;;23.20;95.70;;;;;;5097957;28;20415;-88
2023/05/13 11:45:06;;;;;;;8.20;2.80;;;23.20;95.00;;;;;;5131339;28;20403;-88
2023/05/13 11:47:33;;;;;;;6.78;2.45;;;23.10;95.20;;;;;;5114933;28;20071;-88
2023/05/13 11:50:00;;;;;;;4.80;2.90;;;23.20;95.30;;;;;;5114409;28;20075;-88
2023/05/13 11:52:28;;;;;;;5.53;2.50;;;23.20;95.10;;;;;;5114675;28;20039;-88
2023/05/13 11:54:56;;;;;;;9.88;2.35;;;23.20;95.30;;;;;;5131354;28;20047;-88
2023/05/13 11:57:24;;;;;;;5.85;2.00;;;23.30;93.90;;;;;;5130950;28;20453;-87
2023/05/13 11:59:55;;;;;;;7.18;2.25;;;23.30;93.20;;;;;;5142379;28;20035;-87
2023/05/13 12:02:30;;;;;;;4.43;2.20;;;23.30;92.50;;;;;;5145608;28;20487;-88
2023/05/13 12:05:04;;;;;;;7.70;2.65;;;23.20;93.10;;;;;;5143366;27;20035;-87
2023/05/13 12:07:32;;;;;;;5.05;2.38;;;23.30;93.10;;;;;;5142948;28;20043;-87
2023/05/13 12:10:01;;;;;;;6.40;2.17;;;23.30;91.70;;;;;;5125662;28;20486;-88
2023/05/13 12:12:31;;;;;;;6.05;2.30;;;23.30;91.20;;;;;;5114861;28;20051;-88
2023/05/13 12:14:59;;;;;;;7.90;2.58;;;23.20;91.50;;;;;;5136987;28;20053;-87
2023/05/13 12:17:26;;;;;;;6.18;2.42;;;23.20;91.50;;;;;;5151502;28;20061;-88
2023/05/13 12:20:13;;;;;;;6.75;2.50;;;23.20;91.50;;;;;;5129074;28;20035;-88
2023/05/13 12:22:43;;;;;;;7.10;2.25;;;23.10;88.40;;;;;;5146868;28;20411;-90
2023/05/13 12:25:40;;;;;;;6.78;3.03;;;23.10;91.40;;;;;;5130922;28;20532;-86
2023/05/13 12:28:24;;;;;;;7.20;2.30;;;23.00;89.80;;;;;;5137234;28;20043;-91
2023/05/13 12:31:01;;;;;;;6.68;2.40;;;23.00;90.00;;;;;;5134923;28;20047;-91
2023/05/13 12:33:39;;;;;;;4.40;2.38;;;23.00;90.80;;;;;;5136387;28;20070;-92
2023/05/13 12:36:30;;;;;;;3.72;2.28;;;23.00;89.80;;;;;;5152626;28;20162;-88
2023/05/13 12:39:02;;;;;;;4.78;2.33;;;22.90;87.30;;;;;;5169325;27;20039;-85
2023/05/13 12:41:31;;;;;;;5.90;2.25;;;22.80;86.60;;;;;;5172806;27;20031;-87
2023/05/13 12:44:00;;;;;;;7.63;2.72;;;22.80;89.50;;;;;;5151969;27;20431;-86
2023/05/13 12:46:28;;;;;;;8.23;2.20;;;22.80;89.80;;;;;;5134437;28;20095;-84